sensor_id;sensor_type;location;lat;lon;timestamp;temperature;humidity
74822;DHT22;63353;48.702;8.884;2023-03-25T00:01:56;6.50;99.90
74822;DHT22;63353;48.702;8.884;2023-03-25T00:04:22;6.40;99.90
74822;DHT22;63353;48.702;8.884;2023-03-25T00:06:54;6.30;99.90
74822;DHT22;63353;48.702;8.884;2023-03-25T00:09:21;6.30;99.90
74822;DHT22;63353;48.702;8.884;2023-03-25T00:11:49;6.30;99.90
74822;DHT22;63353;48.702;8.884;2023-03-25T00:14:16;6.40;99.90
74822;DHT22;63353;48.702;8.884;2023-03-25T00:16:42;6.40;99.90
74822;DHT22;63353;48.702;8.884;2023-03-25T00:19:19;6.40;99.90
74822;DHT22;63353;48.702;8.884;2023-03-25T00:21:52;6.30;99.90
74822;DHT22;63353;48.702;8.884;2023-03-25T00:24:24;6.30;99.90
74822;DHT22;63353;48.702;8.884;2023-03-25T00:26:49;6.30;99.90
74822;DHT22;63353;48.702;8.884;2023-03-25T00:29:19;6.30;99.90
74822;DHT22;63353;48.702;8.884;2023-03-25T00:31:47;6.20;99.90
74822;DHT22;63353;48.702;8.884;2023-03-25T00:34:14;6.20;99.90
74822;DHT22;63353;48.702;8.884;2023-03-25T00:36:48;6.20;99.90
74822;DHT22;63353;48.702;8.884;2023-03-25T00:39:16;6.20;99.90
74822;DHT22;63353;48.702;8.884;2023-03-25T00:41:43;6.10;99.90
74822;DHT22;63353;48.702;8.884;2023-03-25T00:44:10;6.20;99.90
74822;DHT22;63353;48.702;8.884;2023-03-25T00:46:38;6.20;99.90
74822;DHT22;63353;48.702;8.884;2023-03-25T00:49:04;6.30;99.90
74822;DHT22;63353;48.702;8.884;2023-03-25T00:51:30;6.20;99.90
74822;DHT22;63353;48.702;8.884;2023-03-25T00:53:58;6.20;99.90
74822;DHT22;63353;48.702;8.884;2023-03-25T00:56:28;6.00;99.90
74822;DHT22;63353;48.702;8.884;2023-03-25T00:58:55;5.90;99.90
74822;DHT22;63353;48.702;8.884;2023-03-25T01:01:25;5.80;99.90
74822;DHT22;63353;48.702;8.884;2023-03-25T01:03:58;5.80;99.90
74822;DHT22;63353;48.702;8.884;2023-03-25T01:06:35;5.80;99.90
74822;DHT22;63353;48.702;8.884;2023-03-25T01:09:03;5.80;99.90
74822;DHT22;63353;48.702;8.884;2023-03-25T01:11:31;5.90;99.90
74822;DHT22;63353;48.702;8.884;2023-03-25T01:14:04;5.90;99.90
74822;DHT22;63353;48.702;8.884;2023-03-25T01:16:31;5.90;99.90
74822;DHT22;63353;48.702;8.884;2023-03-25T01:18:57;5.90;99.90
74822;DHT22;63353;48.702;8.884;2023-03-25T01:21:25;6.00;99.90
74822;DHT22;63353;48.702;8.884;2023-03-25T01:23:54;6.00;99.90
74822;DHT22;63353;48.702;8.884;2023-03-25T01:26:26;5.90;99.90
74822;DHT22;63353;48.702;8.884;2023-03-25T01:28:55;5.90;99.90
74822;DHT22;63353;48.702;8.884;2023-03-25T01:31:20;5.90;99.90
74822;DHT22;63353;48.702;8.884;2023-03-25T01:33:57;5.90;99.90
74822;DHT22;63353;48.702;8.884;2023-03-25T01:36:24;5.90;99.90
74822;DHT22;63353;48.702;8.884;2023-03-25T01:38:59;5.90;99.90
74822;DHT22;63353;48.702;8.884;2023-03-25T01:41:27;6.00;99.90
74822;DHT22;63353;48.702;8.884;2023-03-25T01:46:38;6.10;99.90
74822;DHT22;63353;48.702;8.884;2023-03-25T01:49:06;6.00;99.90
74822;DHT22;63353;48.702;8.884;2023-03-25T01:51:38;5.90;99.90
74822;DHT22;63353;48.702;8.884;2023-03-25T01:54:05;5.90;99.90
74822;DHT22;63353;48.702;8.884;2023-03-25T01:56:35;5.90;99.90
74822;DHT22;63353;48.702;8.884;2023-03-25T01:59:09;5.80;99.90
74822;DHT22;63353;48.702;8.884;2023-03-25T02:01:42;5.80;99.90
74822;DHT22;63353;48.702;8.884;2023-03-25T02:04:12;5.80;99.90
74822;DHT22;63353;48.702;8.884;2023-03-25T02:06:50;5.90;99.90
74822;DHT22;63353;48.702;8.884;2023-03-25T02:09:21;5.90;99.90
74822;DHT22;63353;48.702;8.884;2023-03-25T02:11:48;5.80;99.90
74822;DHT22;63353;48.702;8.884;2023-03-25T02:14:18;5.90;99.90
74822;DHT22;63353;48.702;8.884;2023-03-25T02:34:44;6.10;99.90
74822;DHT22;63353;48.702;8.884;2023-03-25T02:37:33;6.00;99.90
74822;DHT22;63353;48.702;8.884;2023-03-25T02:40:08;6.00;99.90
74822;DHT22;63353;48.702;8.884;2023-03-25T02:42:52;6.00;99.90
74822;DHT22;63353;48.702;8.884;2023-03-25T02:45:46;5.90;99.90
74822;DHT22;63353;48.702;8.884;2023-03-25T02:48:25;5.80;99.90
74822;DHT22;63353;48.702;8.884;2023-03-25T02:51:04;5.70;99.90
74822;DHT22;63353;48.702;8.884;2023-03-25T02:53:44;5.70;99.90
74822;DHT22;63353;48.702;8.884;2023-03-25T02:56:13;5.60;99.90
74822;DHT22;63353;48.702;8.884;2023-03-25T02:58:41;5.50;99.90
74822;DHT22;63353;48.702;8.884;2023-03-25T03:01:11;5.50;99.90
74822;DHT22;63353;48.702;8.884;2023-03-25T03:03:39;5.50;99.90
74822;DHT22;63353;48.702;8.884;2023-03-25T03:06:15;5.50;99.90
74822;DHT22;63353;48.702;8.884;2023-03-25T03:19:59;5.40;99.90
74822;DHT22;63353;48.702;8.884;2023-03-25T03:22:57;5.40;99.90
74822;DHT22;63353;48.702;8.884;2023-03-25T03:28:15;5.20;99.90
74822;DHT22;63353;48.702;8.884;2023-03-25T03:33:46;5.10;99.90
74822;DHT22;63353;48.702;8.884;2023-03-25T03:36:18;5.10;99.90
74822;DHT22;63353;48.702;8.884;2023-03-25T03:38:59;5.00;99.90
74822;DHT22;63353;48.702;8.884;2023-03-25T03:41:27;5.00;99.90
74822;DHT22;63353;48.702;8.884;2023-03-25T03:44:06;4.90;99.90
74822;DHT22;63353;48.702;8.884;2023-03-25T03:46:56;4.90;99.90
74822;DHT22;63353;48.702;8.884;2023-03-25T03:49:35;4.90;99.90
74822;DHT22;63353;48.702;8.884;2023-03-25T03:54:57;5.10;99.90
74822;DHT22;63353;48.702;8.884;2023-03-25T03:57:39;5.10;99.90
74822;DHT22;63353;48.702;8.884;2023-03-25T04:00:21;5.00;99.90
74822;DHT22;63353;48.702;8.884;2023-03-25T04:03:27;5.00;99.90
74822;DHT22;63353;48.702;8.884;2023-03-25T04:06:07;5.00;99.90
74822;DHT22;63353;48.702;8.884;2023-03-25T04:08:42;5.00;99.90
74822;DHT22;63353;48.702;8.884;2023-03-25T04:11:20;5.10;99.90
74822;DHT22;63353;48.702;8.884;2023-03-25T04:13:48;5.00;99.90
74822;DHT22;63353;48.702;8.884;2023-03-25T04:16:16;5.10;99.90
74822;DHT22;63353;48.702;8.884;2023-03-25T04:18:45;5.10;99.90
74822;DHT22;63353;48.702;8.884;2023-03-25T04:21:13;5.00;99.90
74822;DHT22;63353;48.702;8.884;2023-03-25T04:23:40;5.00;99.90
74822;DHT22;63353;48.702;8.884;2023-03-25T04:26:06;4.90;99.90
74822;DHT22;63353;48.702;8.884;2023-03-25T04:28:32;4.90;99.90
74822;DHT22;63353;48.702;8.884;2023-03-25T04:30:57;5.00;99.90
74822;DHT22;63353;48.702;8.884;2023-03-25T04:33:27;4.90;99.90
74822;DHT22;63353;48.702;8.884;2023-03-25T04:35:56;5.00;99.90
74822;DHT22;63353;48.702;8.884;2023-03-25T04:38:21;5.00;99.90
74822;DHT22;63353;48.702;8.884;2023-03-25T04:40:47;4.80;99.90
74822;DHT22;63353;48.702;8.884;2023-03-25T04:43:16;5.00;99.90
74822;DHT22;63353;48.702;8.884;2023-03-25T04:45:43;4.80;99.90
74822;DHT22;63353;48.702;8.884;2023-03-25T04:48:33;4.70;99.90
74822;DHT22;63353;48.702;8.884;2023-03-25T04:51:00;4.60;99.90
74822;DHT22;63353;48.702;8.884;2023-03-25T04:53:28;4.60;99.90
74822;DHT22;63353;48.702;8.884;2023-03-25T04:55:54;4.70;99.90
74822;DHT22;63353;48.702;8.884;2023-03-25T04:58:20;4.70;99.90
74822;DHT22;63353;48.702;8.884;2023-03-25T05:00:49;4.60;99.90
74822;DHT22;63353;48.702;8.884;2023-03-25T05:03:16;4.50;99.90
74822;DHT22;63353;48.702;8.884;2023-03-25T05:05:42;4.50;99.90
74822;DHT22;63353;48.702;8.884;2023-03-25T05:08:08;4.60;99.90
74822;DHT22;63353;48.702;8.884;2023-03-25T05:10:36;4.60;99.90
74822;DHT22;63353;48.702;8.884;2023-03-25T05:13:06;4.70;99.90
74822;DHT22;63353;48.702;8.884;2023-03-25T05:15:34;4.70;99.90
74822;DHT22;63353;48.702;8.884;2023-03-25T05:18:07;4.80;99.90
74822;DHT22;63353;48.702;8.884;2023-03-25T05:20:37;4.90;99.90
74822;DHT22;63353;48.702;8.884;2023-03-25T05:23:11;5.00;99.90
74822;DHT22;63353;48.702;8.884;2023-03-25T05:25:43;5.00;99.90
74822;DHT22;63353;48.702;8.884;2023-03-25T05:28:09;5.10;99.90
74822;DHT22;63353;48.702;8.884;2023-03-25T05:30:41;5.10;99.90
74822;DHT22;63353;48.702;8.884;2023-03-25T05:33:08;5.10;99.90
74822;DHT22;63353;48.702;8.884;2023-03-25T05:35:38;5.10;99.90
74822;DHT22;63353;48.702;8.884;2023-03-25T05:38:04;5.20;99.90
74822;DHT22;63353;48.702;8.884;2023-03-25T05:40:32;5.20;99.90
74822;DHT22;63353;48.702;8.884;2023-03-25T05:42:58;5.10;99.90
74822;DHT22;63353;48.702;8.884;2023-03-25T05:45:24;5.20;99.90
74822;DHT22;63353;48.702;8.884;2023-03-25T05:47:50;5.20;99.90
74822;DHT22;63353;48.702;8.884;2023-03-25T05:50:16;5.20;99.90
74822;DHT22;63353;48.702;8.884;2023-03-25T05:52:42;5.20;99.90
74822;DHT22;63353;48.702;8.884;2023-03-25T05:55:17;5.30;99.90
74822;DHT22;63353;48.702;8.884;2023-03-25T05:57:43;5.30;99.90
74822;DHT22;63353;48.702;8.884;2023-03-25T06:00:10;5.40;99.90
74822;DHT22;63353;48.702;8.884;2023-03-25T06:02:38;5.50;99.90
74822;DHT22;63353;48.702;8.884;2023-03-25T06:05:04;5.60;99.90
74822;DHT22;63353;48.702;8.884;2023-03-25T06:07:30;5.60;99.90
74822;DHT22;63353;48.702;8.884;2023-03-25T06:09:56;5.60;99.90
74822;DHT22;63353;48.702;8.884;2023-03-25T06:12:23;5.60;99.90
74822;DHT22;63353;48.702;8.884;2023-03-25T06:14:52;5.60;99.90
74822;DHT22;63353;48.702;8.884;2023-03-25T06:17:22;5.70;99.90
74822;DHT22;63353;48.702;8.884;2023-03-25T06:19:49;5.80;99.90
74822;DHT22;63353;48.702;8.884;2023-03-25T06:22:14;5.90;99.90
74822;DHT22;63353;48.702;8.884;2023-03-25T06:24:41;6.00;99.90
74822;DHT22;63353;48.702;8.884;2023-03-25T06:27:12;6.00;99.90
74822;DHT22;63353;48.702;8.884;2023-03-25T06:29:38;6.10;99.90
74822;DHT22;63353;48.702;8.884;2023-03-25T06:32:07;6.10;99.90
74822;DHT22;63353;48.702;8.884;2023-03-25T06:34:33;6.20;99.90
74822;DHT22;63353;48.702;8.884;2023-03-25T06:37:10;6.20;99.90
74822;DHT22;63353;48.702;8.884;2023-03-25T06:39:36;6.20;99.90
74822;DHT22;63353;48.702;8.884;2023-03-25T06:42:03;6.20;99.90
74822;DHT22;63353;48.702;8.884;2023-03-25T06:44:29;6.30;99.90
74822;DHT22;63353;48.702;8.884;2023-03-25T06:46:58;6.50;99.90
74822;DHT22;63353;48.702;8.884;2023-03-25T06:49:26;6.70;99.90
74822;DHT22;63353;48.702;8.884;2023-03-25T06:51:52;6.80;99.90
74822;DHT22;63353;48.702;8.884;2023-03-25T06:54:17;6.60;99.90
74822;DHT22;63353;48.702;8.884;2023-03-25T06:56:58;6.50;99.90
74822;DHT22;63353;48.702;8.884;2023-03-25T06:59:27;6.50;99.90
74822;DHT22;63353;48.702;8.884;2023-03-25T07:01:56;6.40;99.90
74822;DHT22;63353;48.702;8.884;2023-03-25T07:04:22;6.40;99.90
74822;DHT22;63353;48.702;8.884;2023-03-25T07:06:50;6.50;99.90
74822;DHT22;63353;48.702;8.884;2023-03-25T07:09:19;6.50;99.90
74822;DHT22;63353;48.702;8.884;2023-03-25T07:11:45;6.50;99.90
74822;DHT22;63353;48.702;8.884;2023-03-25T07:14:10;6.80;99.90
74822;DHT22;63353;48.702;8.884;2023-03-25T07:16:36;6.70;99.90
74822;DHT22;63353;48.702;8.884;2023-03-25T07:19:01;6.80;99.90
74822;DHT22;63353;48.702;8.884;2023-03-25T07:21:27;6.90;99.90
74822;DHT22;63353;48.702;8.884;2023-03-25T07:23:53;7.00;99.90
74822;DHT22;63353;48.702;8.884;2023-03-25T07:26:19;7.00;99.90
74822;DHT22;63353;48.702;8.884;2023-03-25T07:28:44;7.20;99.90
74822;DHT22;63353;48.702;8.884;2023-03-25T07:31:13;7.10;99.90
74822;DHT22;63353;48.702;8.884;2023-03-25T07:33:39;7.10;99.90
74822;DHT22;63353;48.702;8.884;2023-03-25T07:36:06;7.10;99.90
74822;DHT22;63353;48.702;8.884;2023-03-25T07:38:32;7.20;99.90
74822;DHT22;63353;48.702;8.884;2023-03-25T07:40:58;7.30;99.90
74822;DHT22;63353;48.702;8.884;2023-03-25T07:43:24;7.20;99.90
74822;DHT22;63353;48.702;8.884;2023-03-25T07:45:49;7.40;99.90
74822;DHT22;63353;48.702;8.884;2023-03-25T07:48:15;7.40;99.90
74822;DHT22;63353;48.702;8.884;2023-03-25T07:50:42;7.50;99.90
74822;DHT22;63353;48.702;8.884;2023-03-25T07:53:08;7.60;99.90
74822;DHT22;63353;48.702;8.884;2023-03-25T07:55:34;7.70;99.90
74822;DHT22;63353;48.702;8.884;2023-03-25T07:58:00;7.80;99.90
74822;DHT22;63353;48.702;8.884;2023-03-25T08:00:28;7.80;99.90
74822;DHT22;63353;48.702;8.884;2023-03-25T08:02:54;7.60;99.90
74822;DHT22;63353;48.702;8.884;2023-03-25T08:05:20;7.70;99.90
74822;DHT22;63353;48.702;8.884;2023-03-25T08:07:52;7.90;99.90
74822;DHT22;63353;48.702;8.884;2023-03-25T08:10:18;7.90;99.90
74822;DHT22;63353;48.702;8.884;2023-03-25T08:12:44;7.90;99.90
74822;DHT22;63353;48.702;8.884;2023-03-25T08:15:11;7.90;99.90
74822;DHT22;63353;48.702;8.884;2023-03-25T08:17:38;7.60;99.90
74822;DHT22;63353;48.702;8.884;2023-03-25T08:20:05;7.30;99.90
74822;DHT22;63353;48.702;8.884;2023-03-25T08:22:32;7.10;99.90
74822;DHT22;63353;48.702;8.884;2023-03-25T08:24:58;6.90;99.90
74822;DHT22;63353;48.702;8.884;2023-03-25T08:27:24;6.60;99.90
74822;DHT22;63353;48.702;8.884;2023-03-25T08:29:50;6.50;99.90
74822;DHT22;63353;48.702;8.884;2023-03-25T08:32:20;6.30;99.90
74822;DHT22;63353;48.702;8.884;2023-03-25T08:34:46;6.40;99.90
74822;DHT22;63353;48.702;8.884;2023-03-25T08:37:12;6.60;99.90
74822;DHT22;63353;48.702;8.884;2023-03-25T08:39:39;6.60;99.90
74822;DHT22;63353;48.702;8.884;2023-03-25T08:42:11;6.60;99.90
74822;DHT22;63353;48.702;8.884;2023-03-25T08:44:37;6.60;99.90
74822;DHT22;63353;48.702;8.884;2023-03-25T08:47:03;6.70;99.90
74822;DHT22;63353;48.702;8.884;2023-03-25T08:49:29;6.50;99.90
74822;DHT22;63353;48.702;8.884;2023-03-25T08:51:55;6.40;99.90
74822;DHT22;63353;48.702;8.884;2023-03-25T08:54:23;6.20;99.90
74822;DHT22;63353;48.702;8.884;2023-03-25T08:56:49;6.00;99.90
74822;DHT22;63353;48.702;8.884;2023-03-25T08:59:15;6.20;99.90
74822;DHT22;63353;48.702;8.884;2023-03-25T09:01:40;6.30;99.90
74822;DHT22;63353;48.702;8.884;2023-03-25T09:04:08;6.50;99.90
74822;DHT22;63353;48.702;8.884;2023-03-25T09:06:33;6.70;99.90
74822;DHT22;63353;48.702;8.884;2023-03-25T09:09:00;7.00;99.90
74822;DHT22;63353;48.702;8.884;2023-03-25T09:11:25;7.30;99.90
74822;DHT22;63353;48.702;8.884;2023-03-25T09:13:51;7.70;99.90
74822;DHT22;63353;48.702;8.884;2023-03-25T09:16:17;8.10;99.90
74822;DHT22;63353;48.702;8.884;2023-03-25T09:18:42;8.00;99.90
74822;DHT22;63353;48.702;8.884;2023-03-25T09:21:10;8.00;99.90
74822;DHT22;63353;48.702;8.884;2023-03-25T09:23:36;8.10;99.90
74822;DHT22;63353;48.702;8.884;2023-03-25T09:26:02;8.40;99.90
74822;DHT22;63353;48.702;8.884;2023-03-25T09:28:29;8.50;99.90
74822;DHT22;63353;48.702;8.884;2023-03-25T09:30:55;8.70;99.90
74822;DHT22;63353;48.702;8.884;2023-03-25T09:33:21;8.60;99.90
74822;DHT22;63353;48.702;8.884;2023-03-25T09:35:48;8.70;99.90
74822;DHT22;63353;48.702;8.884;2023-03-25T09:38:13;8.70;99.90
74822;DHT22;63353;48.702;8.884;2023-03-25T09:40:41;8.80;99.90
74822;DHT22;63353;48.702;8.884;2023-03-25T09:46:01;8.90;99.90
74822;DHT22;63353;48.702;8.884;2023-03-25T09:48:40;8.90;99.90
74822;DHT22;63353;48.702;8.884;2023-03-25T09:56:36;8.90;99.90
74822;DHT22;63353;48.702;8.884;2023-03-25T09:59:16;8.80;99.90
74822;DHT22;63353;48.702;8.884;2023-03-25T10:01:46;8.60;99.90
74822;DHT22;63353;48.702;8.884;2023-03-25T10:07:31;8.80;99.90
74822;DHT22;63353;48.702;8.884;2023-03-25T10:13:17;8.80;99.90
74822;DHT22;63353;48.702;8.884;2023-03-25T10:21:15;8.90;99.90
74822;DHT22;63353;48.702;8.884;2023-03-25T10:26:27;9.40;99.90
74822;DHT22;63353;48.702;8.884;2023-03-25T10:29:04;9.50;99.90
74822;DHT22;63353;48.702;8.884;2023-03-25T10:31:42;9.70;99.90
74822;DHT22;63353;48.702;8.884;2023-03-25T10:34:16;9.40;99.90
74822;DHT22;63353;48.702;8.884;2023-03-25T10:36:52;9.50;99.90
74822;DHT22;63353;48.702;8.884;2023-03-25T10:39:22;9.80;99.90
74822;DHT22;63353;48.702;8.884;2023-03-25T10:44:48;9.60;99.90
74822;DHT22;63353;48.702;8.884;2023-03-25T10:47:27;9.50;99.90
74822;DHT22;63353;48.702;8.884;2023-03-25T10:49:55;9.60;99.90
74822;DHT22;63353;48.702;8.884;2023-03-25T10:52:21;9.50;99.90
74822;DHT22;63353;48.702;8.884;2023-03-25T10:54:54;9.40;99.90
74822;DHT22;63353;48.702;8.884;2023-03-25T10:57:30;9.30;99.90
74822;DHT22;63353;48.702;8.884;2023-03-25T11:00:13;9.40;99.90
74822;DHT22;63353;48.702;8.884;2023-03-25T11:02:50;9.90;99.90
74822;DHT22;63353;48.702;8.884;2023-03-25T11:05:19;9.70;99.90
74822;DHT22;63353;48.702;8.884;2023-03-25T11:07:50;10.00;99.90
74822;DHT22;63353;48.702;8.884;2023-03-25T11:10:36;10.00;99.90
74822;DHT22;63353;48.702;8.884;2023-03-25T11:13:01;10.10;99.90
74822;DHT22;63353;48.702;8.884;2023-03-25T11:15:36;10.00;99.90
74822;DHT22;63353;48.702;8.884;2023-03-25T11:20:40;9.80;99.90
74822;DHT22;63353;48.702;8.884;2023-03-25T11:23:31;10.50;99.90
74822;DHT22;63353;48.702;8.884;2023-03-25T11:26:10;10.70;99.90
74822;DHT22;63353;48.702;8.884;2023-03-25T11:28:43;10.40;99.90
74822;DHT22;63353;48.702;8.884;2023-03-25T11:33:39;10.60;99.90
74822;DHT22;63353;48.702;8.884;2023-03-25T11:36:30;10.80;99.90
74822;DHT22;63353;48.702;8.884;2023-03-25T11:39:48;10.80;99.90
74822;DHT22;63353;48.702;8.884;2023-03-25T11:41:51;10.90;99.90
74822;DHT22;63353;48.702;8.884;2023-03-25T11:44:30;10.90;99.90
74822;DHT22;63353;48.702;8.884;2023-03-25T11:47:03;10.80;99.90
74822;DHT22;63353;48.702;8.884;2023-03-25T11:49:36;10.60;99.90
74822;DHT22;63353;48.702;8.884;2023-03-25T11:52:26;10.30;99.90
74822;DHT22;63353;48.702;8.884;2023-03-25T11:54:54;10.20;99.90
74822;DHT22;63353;48.702;8.884;2023-03-25T11:57:29;10.20;99.90
74822;DHT22;63353;48.702;8.884;2023-03-25T12:05:27;9.70;99.90
74822;DHT22;63353;48.702;8.884;2023-03-25T12:25:20;11.30;99.90
74822;DHT22;63353;48.702;8.884;2023-03-25T12:28:06;11.50;99.90
74822;DHT22;63353;48.702;8.884;2023-03-25T12:37:14;9.70;99.90
74822;DHT22;63353;48.702;8.884;2023-03-25T12:54:33;9.50;99.90
74822;DHT22;63353;48.702;8.884;2023-03-25T12:57:36;9.80;99.90
74822;DHT22;63353;48.702;8.884;2023-03-25T13:06:19;10.50;99.90
74822;DHT22;63353;48.702;8.884;2023-03-25T13:08:49;10.30;99.90
74822;DHT22;63353;48.702;8.884;2023-03-25T13:11:49;10.10;99.90
74822;DHT22;63353;48.702;8.884;2023-03-25T13:14:27;9.90;99.90
74822;DHT22;63353;48.702;8.884;2023-03-25T13:16:57;9.30;99.90
74822;DHT22;63353;48.702;8.884;2023-03-25T13:19:26;8.60;99.90
74822;DHT22;63353;48.702;8.884;2023-03-25T13:21:56;8.40;99.90
74822;DHT22;63353;48.702;8.884;2023-03-25T13:24:47;8.70;99.90
74822;DHT22;63353;48.702;8.884;2023-03-25T13:27:16;8.80;99.90
74822;DHT22;63353;48.702;8.884;2023-03-25T13:32:19;9.90;99.90
74822;DHT22;63353;48.702;8.884;2023-03-25T13:35:02;10.40;99.90
74822;DHT22;63353;48.702;8.884;2023-03-25T13:45:23;12.80;99.90
74822;DHT22;63353;48.702;8.884;2023-03-25T13:50:36;13.80;99.90
74822;DHT22;63353;48.702;8.884;2023-03-25T13:53:14;13.70;99.90
74822;DHT22;63353;48.702;8.884;2023-03-25T13:56:01;12.90;99.90
74822;DHT22;63353;48.702;8.884;2023-03-25T14:10:34;11.20;99.90
74822;DHT22;63353;48.702;8.884;2023-03-25T14:13:42;13.40;99.90
74822;DHT22;63353;48.702;8.884;2023-03-25T14:16:09;13.70;99.90
74822;DHT22;63353;48.702;8.884;2023-03-25T14:19:14;13.10;99.90
74822;DHT22;63353;48.702;8.884;2023-03-25T14:21:45;13.40;99.90
74822;DHT22;63353;48.702;8.884;2023-03-25T14:24:15;13.30;99.90
74822;DHT22;63353;48.702;8.884;2023-03-25T14:26:50;12.90;99.90
74822;DHT22;63353;48.702;8.884;2023-03-25T14:34:41;15.20;99.90
74822;DHT22;63353;48.702;8.884;2023-03-25T14:39:50;15.10;99.90
74822;DHT22;63353;48.702;8.884;2023-03-25T14:42:57;14.50;99.90
74822;DHT22;63353;48.702;8.884;2023-03-25T14:47:59;14.60;99.90
74822;DHT22;63353;48.702;8.884;2023-03-25T14:52:56;14.60;99.90
74822;DHT22;63353;48.702;8.884;2023-03-25T14:55:48;15.30;99.90
74822;DHT22;63353;48.702;8.884;2023-03-25T14:58:26;15.90;99.90
74822;DHT22;63353;48.702;8.884;2023-03-25T15:03:42;15.70;99.90
74822;DHT22;63353;48.702;8.884;2023-03-25T15:06:17;16.00;99.90
74822;DHT22;63353;48.702;8.884;2023-03-25T15:09:10;15.40;99.90
74822;DHT22;63353;48.702;8.884;2023-03-25T15:11:43;15.20;99.90
74822;DHT22;63353;48.702;8.884;2023-03-25T15:14:21;15.10;99.90
74822;DHT22;63353;48.702;8.884;2023-03-25T15:17:43;15.30;99.90
74822;DHT22;63353;48.702;8.884;2023-03-25T15:22:37;14.60;99.90
74822;DHT22;63353;48.702;8.884;2023-03-25T15:25:14;14.70;99.90
74822;DHT22;63353;48.702;8.884;2023-03-25T15:27:58;14.70;99.90
74822;DHT22;63353;48.702;8.884;2023-03-25T15:42:22;15.00;99.90
74822;DHT22;63353;48.702;8.884;2023-03-25T15:56:10;16.30;99.90
74822;DHT22;63353;48.702;8.884;2023-03-25T15:58:46;16.60;99.90
74822;DHT22;63353;48.702;8.884;2023-03-25T16:01:29;16.90;98.70
74822;DHT22;63353;48.702;8.884;2023-03-25T16:04:10;16.70;99.70
74822;DHT22;63353;48.702;8.884;2023-03-25T16:06:46;17.00;98.50
74822;DHT22;63353;48.702;8.884;2023-03-25T16:09:22;16.30;99.50
74822;DHT22;63353;48.702;8.884;2023-03-25T16:11:49;16.10;99.90
74822;DHT22;63353;48.702;8.884;2023-03-25T16:14:17;16.20;99.90
74822;DHT22;63353;48.702;8.884;2023-03-25T16:16:54;15.90;99.90
74822;DHT22;63353;48.702;8.884;2023-03-25T16:19:31;15.30;99.90
74822;DHT22;63353;48.702;8.884;2023-03-25T16:22:03;14.50;99.90
74822;DHT22;63353;48.702;8.884;2023-03-25T16:24:33;14.50;99.90
74822;DHT22;63353;48.702;8.884;2023-03-25T16:27:24;14.60;99.90
74822;DHT22;63353;48.702;8.884;2023-03-25T16:29:52;14.80;99.90
74822;DHT22;63353;48.702;8.884;2023-03-25T16:32:30;15.50;99.90
74822;DHT22;63353;48.702;8.884;2023-03-25T16:35:02;15.70;99.90
74822;DHT22;63353;48.702;8.884;2023-03-25T16:37:33;15.90;99.90
74822;DHT22;63353;48.702;8.884;2023-03-25T16:40:04;16.60;99.90
74822;DHT22;63353;48.702;8.884;2023-03-25T16:42:31;18.30;99.90
74822;DHT22;63353;48.702;8.884;2023-03-25T16:44:59;18.80;96.00
74822;DHT22;63353;48.702;8.884;2023-03-25T16:47:26;18.60;96.20
74822;DHT22;63353;48.702;8.884;2023-03-25T16:49:54;17.70;96.40
74822;DHT22;63353;48.702;8.884;2023-03-25T16:52:32;17.00;97.40
74822;DHT22;63353;48.702;8.884;2023-03-25T16:57:32;15.40;99.20
74822;DHT22;63353;48.702;8.884;2023-03-25T17:00:19;15.20;99.90
74822;DHT22;63353;48.702;8.884;2023-03-25T17:02:46;14.80;99.90
74822;DHT22;63353;48.702;8.884;2023-03-25T17:05:21;14.60;99.90
74822;DHT22;63353;48.702;8.884;2023-03-25T17:07:54;13.90;99.90
74822;DHT22;63353;48.702;8.884;2023-03-25T17:10:27;12.90;99.90
74822;DHT22;63353;48.702;8.884;2023-03-25T17:13:07;12.60;99.90
74822;DHT22;63353;48.702;8.884;2023-03-25T17:15:34;11.90;99.90
74822;DHT22;63353;48.702;8.884;2023-03-25T17:18:08;11.40;99.90
74822;DHT22;63353;48.702;8.884;2023-03-25T17:20:42;10.90;99.90
74822;DHT22;63353;48.702;8.884;2023-03-25T17:23:34;10.50;99.90
74822;DHT22;63353;48.702;8.884;2023-03-25T17:26:10;10.20;99.90
74822;DHT22;63353;48.702;8.884;2023-03-25T17:28:56;10.00;99.90
74822;DHT22;63353;48.702;8.884;2023-03-25T17:31:44;9.90;99.90
74822;DHT22;63353;48.702;8.884;2023-03-25T17:34:20;9.70;99.90
74822;DHT22;63353;48.702;8.884;2023-03-25T17:37:02;9.60;99.90
74822;DHT22;63353;48.702;8.884;2023-03-25T17:39:30;9.40;99.90
74822;DHT22;63353;48.702;8.884;2023-03-25T17:42:06;9.40;99.90
74822;DHT22;63353;48.702;8.884;2023-03-25T17:44:41;9.20;99.90
74822;DHT22;63353;48.702;8.884;2023-03-25T17:47:13;9.10;99.90
74822;DHT22;63353;48.702;8.884;2023-03-25T17:49:42;9.00;99.90
74822;DHT22;63353;48.702;8.884;2023-03-25T17:52:11;8.90;99.90
74822;DHT22;63353;48.702;8.884;2023-03-25T17:54:37;8.90;99.90
74822;DHT22;63353;48.702;8.884;2023-03-25T17:57:26;8.70;99.90
74822;DHT22;63353;48.702;8.884;2023-03-25T17:59:55;8.60;99.90
74822;DHT22;63353;48.702;8.884;2023-03-25T18:02:21;8.60;99.90
74822;DHT22;63353;48.702;8.884;2023-03-25T18:04:46;8.50;99.90
74822;DHT22;63353;48.702;8.884;2023-03-25T18:07:12;8.50;99.90
74822;DHT22;63353;48.702;8.884;2023-03-25T18:09:37;8.30;99.90
74822;DHT22;63353;48.702;8.884;2023-03-25T18:12:04;8.30;99.90
74822;DHT22;63353;48.702;8.884;2023-03-25T18:14:29;8.10;99.90
74822;DHT22;63353;48.702;8.884;2023-03-25T18:16:55;8.00;99.90
74822;DHT22;63353;48.702;8.884;2023-03-25T18:19:26;7.80;99.90
74822;DHT22;63353;48.702;8.884;2023-03-25T18:21:53;7.90;99.90
74822;DHT22;63353;48.702;8.884;2023-03-25T18:24:31;7.70;99.90
74822;DHT22;63353;48.702;8.884;2023-03-25T18:26:58;7.60;99.90
74822;DHT22;63353;48.702;8.884;2023-03-25T18:29:25;7.60;99.90
74822;DHT22;63353;48.702;8.884;2023-03-25T18:31:56;7.60;99.90
74822;DHT22;63353;48.702;8.884;2023-03-25T18:34:22;7.60;99.90
74822;DHT22;63353;48.702;8.884;2023-03-25T18:36:51;7.50;99.90
74822;DHT22;63353;48.702;8.884;2023-03-25T18:39:21;7.40;99.90
74822;DHT22;63353;48.702;8.884;2023-03-25T18:41:53;7.30;99.90
74822;DHT22;63353;48.702;8.884;2023-03-25T18:44:21;7.30;99.90
74822;DHT22;63353;48.702;8.884;2023-03-25T18:46:57;7.30;99.90
74822;DHT22;63353;48.702;8.884;2023-03-25T18:49:22;7.40;99.90
74822;DHT22;63353;48.702;8.884;2023-03-25T18:51:48;7.40;99.90
74822;DHT22;63353;48.702;8.884;2023-03-25T18:54:17;7.40;99.90
74822;DHT22;63353;48.702;8.884;2023-03-25T18:56:52;7.40;99.90
74822;DHT22;63353;48.702;8.884;2023-03-25T18:59:17;7.30;99.90
74822;DHT22;63353;48.702;8.884;2023-03-25T19:01:52;7.30;99.90
74822;DHT22;63353;48.702;8.884;2023-03-25T19:04:18;7.20;99.90
74822;DHT22;63353;48.702;8.884;2023-03-25T19:06:43;7.20;99.90
74822;DHT22;63353;48.702;8.884;2023-03-25T19:09:14;7.20;99.90
74822;DHT22;63353;48.702;8.884;2023-03-25T19:11:42;7.20;99.90
74822;DHT22;63353;48.702;8.884;2023-03-25T19:14:08;7.10;99.90
74822;DHT22;63353;48.702;8.884;2023-03-25T19:16:33;7.10;99.90
74822;DHT22;63353;48.702;8.884;2023-03-25T19:18:59;7.10;99.90
74822;DHT22;63353;48.702;8.884;2023-03-25T19:21:25;7.20;99.90